Time;durP1;ratioP1;P1;durP2;ratioP2;P2;SDS_P1;SDS_P2;PMS_P1;PMS_P2;Temp;Humidity;BMP_temperature;BMP_pressure;BME280_temperature;BME280_humidity;BME280_pressure;Samples;Min_cycle;Max_cycle;Signal;HPM_P1;HPM_P2
2022/07/28 00:01:28;;;;;;;29.23;18.92;;;;;;;26.44;44.30;98984.53;5071484;28;20464;-75
2022/07/28 00:03:54;;;;;;;130.63;104.75;;;;;;;26.04;44.83;98991.41;5052685;28;20056;-75
2022/07/28 00:06:19;;;;;;;155.32;124.95;;;;;;;25.57;45.78;98993.50;5052761;28;20029;-75
2022/07/28 00:08:45;;;;;;;202.10;180.57;;;;;;;24.72;46.98;98980.84;5051306;28;20468;-75
2022/07/28 00:11:10;;;;;;;242.85;216.30;;;;;;;24.48;47.96;98992.41;5052645;28;20016;-74
2022/07/28 00:13:36;;;;;;;78.22;64.60;;;;;;;24.65;47.76;98987.56;5050098;28;20083;-74
2022/07/28 00:16:01;;;;;;;36.60;24.98;;;;;;;24.39;48.26;98981.59;5053497;28;20025;-75
2022/07/28 00:18:27;;;;;;;39.58;30.80;;;;;;;24.32;48.47;98987.47;5053545;28;20024;-74
2022/07/28 00:20:52;;;;;;;85.75;62.38;;;;;;;24.53;48.02;98992.69;5053403;28;20016;-75
2022/07/28 00:23:18;;;;;;;60.72;45.25;;;;;;;24.48;48.21;99001.78;5051118;28;20116;-75
2022/07/28 00:25:43;;;;;;;35.55;26.75;;;;;;;24.14;49.04;99004.97;5052281;28;20032;-74
2022/07/28 00:28:09;;;;;;;27.33;19.67;;;;;;;23.94;49.79;99005.75;5050704;28;20155;-75
2022/07/28 00:30:35;;;;;;;17.10;13.63;;;;;;;23.89;49.81;98998.50;5071244;28;20570;-75
2022/07/28 00:33:00;;;;;;;16.38;10.65;;;;;;;23.88;50.22;99004.66;5072247;28;20031;-74
2022/07/28 00:35:26;;;;;;;11.13;9.38;;;;;;;23.73;50.68;99009.81;5070021;28;20499;-74
2022/07/28 00:37:51;;;;;;;12.57;8.98;;;;;;;23.55;51.14;99019.53;5072125;28;20104;-75
2022/07/28 00:40:16;;;;;;;12.23;8.73;;;;;;;23.45;51.70;99018.47;5057378;28;20032;-75
2022/07/28 00:42:42;;;;;;;12.95;9.23;;;;;;;23.44;51.92;99025.41;5052097;28;20561;-74
2022/07/28 00:45:08;;;;;;;11.10;9.68;;;;;;;23.39;52.27;99021.00;5064288;28;20035;-74
2022/07/28 00:47:33;;;;;;;12.55;9.52;;;;;;;23.54;52.24;99035.03;5070644;28;20030;-74
2022/07/28 00:50:01;;;;;;;20.08;9.00;;;;;;;23.50;52.27;99037.97;5070439;28;20115;-75
2022/07/28 00:52:26;;;;;;;15.23;9.55;;;;;;;23.49;52.32;99035.53;5071910;28;20384;-75
2022/07/28 00:54:52;;;;;;;14.32;9.65;;;;;;;23.46;52.28;99022.13;5059805;28;20064;-74
2022/07/28 00:57:19;;;;;;;15.68;9.38;;;;;;;23.54;52.02;99029.34;5050292;28;20436;-75
2022/07/28 00:59:45;;;;;;;10.85;9.20;;;;;;;23.49;52.15;99035.53;5064224;28;20032;-75
2022/07/28 01:02:11;;;;;;;15.02;9.43;;;;;;;23.54;51.95;99032.19;5067095;28;20018;-75
2022/07/28 01:04:36;;;;;;;11.43;8.95;;;;;;;23.38;52.71;99024.31;5051593;28;20055;-75
2022/07/28 01:07:25;;;;;;;12.65;8.43;;;;;;;23.49;52.82;99029.81;5051662;28;20021;-75
2022/07/28 01:10:11;;;;;;;12.80;9.50;;;;;;;23.59;52.35;99030.88;5050282;28;20071;-74
2022/07/28 01:13:01;;;;;;;12.57;8.50;;;;;;;23.77;52.18;99027.69;5050515;28;20461;-74
2022/07/28 01:15:35;;;;;;;14.85;9.50;;;;;;;23.97;51.63;99031.38;5064394;28;20145;-75
2022/07/28 01:18:07;;;;;;;14.15;8.93;;;;;;;24.24;50.71;99023.94;5071369;28;20035;-75
2022/07/28 01:20:38;;;;;;;11.13;8.00;;;;;;;24.35;50.38;99026.56;5071238;28;20021;-75
2022/07/28 01:23:09;;;;;;;12.23;9.40;;;;;;;24.44;50.06;99023.94;5071264;28;20024;-75
2022/07/28 01:25:53;;;;;;;14.77;7.20;;;;;;;24.53;49.81;99029.88;5069865;28;20387;-75
2022/07/28 01:28:40;;;;;;;10.77;7.43;;;;;;;24.60;49.12;99025.22;5070263;28;20107;-75
2022/07/28 01:31:07;;;;;;;11.73;7.57;;;;;;;24.59;48.80;99024.44;5061980;28;20036;-75
2022/07/28 01:33:41;;;;;;;10.82;8.18;;;;;;;24.42;49.02;99028.47;5071236;28;20066;-74
2022/07/28 01:36:21;;;;;;;10.35;7.95;;;;;;;24.42;48.82;99028.47;5069203;28;20032;-75
2022/07/28 01:38:49;;;;;;;12.70;8.50;;;;;;;24.64;48.68;99038.19;5071182;28;20036;-75
2022/07/28 01:41:20;;;;;;;10.02;8.15;;;;;;;24.89;47.64;99033.19;5069855;28;20039;-75
2022/07/28 01:43:50;;;;;;;8.95;7.97;;;;;;;24.88;47.70;99034.44;5062394;28;20025;-75
2022/07/28 01:46:18;;;;;;;10.35;7.50;;;;;;;24.98;47.53;99026.84;5051030;28;20047;-75
2022/07/28 01:48:46;;;;;;;11.80;8.73;;;;;;;25.03;47.61;99026.31;5049723;28;20492;-75
2022/07/28 01:51:13;;;;;;;12.20;8.75;;;;;;;25.08;47.03;99026.59;5054901;28;20498;-75
2022/07/28 01:53:39;;;;;;;12.93;8.20;;;;;;;24.78;47.59;99027.69;5069870;28;20414;-74
2022/07/28 01:56:06;;;;;;;8.80;7.82;;;;;;;24.82;47.47;99031.31;5070952;28;20030;-75
2022/07/28 01:58:34;;;;;;;8.45;7.63;;;;;;;24.93;47.06;99033.91;5069163;28;20133;-75
2022/07/28 02:01:02;;;;;;;10.30;8.07;;;;;;;24.83;46.60;99032.09;5068923;28;20502;-75
2022/07/28 02:03:29;;;;;;;8.98;8.07;;;;;;;24.86;46.75;99032.03;5069716;28;20028;-75
2022/07/28 02:05:57;;;;;;;15.00;8.43;;;;;;;24.87;46.82;99039.34;5070886;28;20025;-75
2022/07/28 02:08:24;;;;;;;10.05;8.43;;;;;;;24.97;46.61;99037.47;5070839;28;20048;-75
2022/07/28 02:13:38;;;;;;;10.05;8.63;;;;;;;25.33;45.64;99032.94;5060680;28;20171;-75
2022/07/28 02:16:08;;;;;;;14.80;7.78;;;;;;;25.55;45.31;99038.94;5050782;28;20017;-75
2022/07/28 02:18:36;;;;;;;11.82;8.57;;;;;;;25.76;45.23;99042.50;5049432;28;20115;-75
2022/07/28 02:21:02;;;;;;;11.55;8.80;;;;;;;25.77;45.93;99042.06;5059471;28;20029;-75
2022/07/28 02:23:28;;;;;;;9.75;8.60;;;;;;;25.85;45.73;99048.41;5070763;28;20115;-75
2022/07/28 02:25:56;;;;;;;11.77;8.15;;;;;;;25.84;45.57;99040.25;5068674;28;20128;-75
2022/07/28 02:28:26;;;;;;;10.50;8.75;;;;;;;25.78;46.06;99037.13;5068540;28;20039;-75
2022/07/28 02:31:08;;;;;;;10.02;8.48;;;;;;;25.85;45.59;99045.53;5070564;28;20036;-75
2022/07/28 02:33:36;;;;;;;9.85;8.65;;;;;;;25.82;45.72;99043.56;5070581;28;20443;-75
2022/07/28 02:36:10;;;;;;;11.63;8.50;;;;;;;25.83;45.35;99045.19;5072259;28;20430;-75
2022/07/28 02:38:43;;;;;;;12.98;9.45;;;;;;;25.80;44.79;99048.94;5074226;28;20031;-75
2022/07/28 02:41:23;;;;;;;12.15;8.88;;;;;;;25.89;45.24;99045.44;5053061;28;20043;-75
2022/07/28 02:43:51;;;;;;;17.63;7.93;;;;;;;25.92;45.04;99041.69;5053781;28;20051;-75
2022/07/28 02:46:28;;;;;;;30.73;9.55;;;;;;;25.97;45.18;99048.91;5053003;28;20558;-75
2022/07/28 02:49:03;;;;;;;17.88;8.65;;;;;;;25.87;45.32;99045.06;5055139;28;20095;-75
2022/07/28 02:51:31;;;;;;;15.13;8.48;;;;;;;25.85;45.21;99042.69;5072790;28;20029;-75
2022/07/28 02:53:58;;;;;;;18.33;8.57;;;;;;;25.78;44.67;99043.69;5072735;28;20391;-75
2022/07/28 02:56:25;;;;;;;14.60;8.50;;;;;;;25.82;44.99;99045.63;5072502;28;20020;-75
2022/07/28 02:58:53;;;;;;;24.50;8.73;;;;;;;25.76;45.21;99053.97;5072400;28;20120;-75
2022/07/28 03:01:19;;;;;;;21.17;8.73;;;;;;;25.74;44.94;99056.47;5061811;28;20033;-75
2022/07/28 03:03:49;;;;;;;20.83;8.57;;;;;;;25.67;45.11;99046.03;5053649;28;20159;-75
2022/07/28 03:06:19;;;;;;;24.30;9.15;;;;;;;25.61;45.59;99048.63;5052647;28;20028;-75
2022/07/28 03:08:44;;;;;;;17.20;8.73;;;;;;;25.33;45.47;99045.19;5053780;28;20070;-75
2022/07/28 03:11:12;;;;;;;14.77;9.63;;;;;;;25.28;45.48;99045.72;5053854;28;20099;-75
2022/07/28 03:13:38;;;;;;;14.77;9.57;;;;;;;25.19;45.78;99051.28;5053774;28;20021;-75
2022/07/28 03:16:04;;;;;;;23.67;8.88;;;;;;;25.17;45.71;99048.06;5064602;28;20520;-75
2022/07/28 03:18:30;;;;;;;25.45;9.07;;;;;;;25.31;45.97;99044.84;5072212;28;20027;-75
2022/07/28 03:20:56;;;;;;;31.45;9.95;;;;;;;25.17;45.86;99045.19;5070302;28;20419;-75
2022/07/28 03:23:28;;;;;;;12.25;9.02;;;;;;;24.50;47.32;99033.63;5062740;28;20082;-75
2022/07/28 03:25:58;;;;;;;18.27;8.77;;;;;;;24.42;47.26;99039.91;5059298;28;20040;-75
2022/07/28 03:28:26;;;;;;;16.48;9.05;;;;;;;24.31;47.96;99028.72;5066441;28;20055;-79
2022/07/28 03:30:56;;;;;;;17.13;9.52;;;;;;;24.29;47.61;99045.50;5071030;28;20490;-79
2022/07/28 03:33:22;;;;;;;1344.97;166.00;;;;;;;24.38;48.03;99029.34;5057949;28;20476;-78
2022/07/28 03:35:50;;;;;;;225.18;24.20;;;;;;;24.34;47.25;99042.09;5069196;28;20022;-79
2022/07/28 03:38:21;;;;;;;12.13;9.43;;;;;;;24.31;47.05;99038.06;5073865;28;20070;-77
2022/07/28 03:40:48;;;;;;;12.15;9.63;;;;;;;24.32;47.72;99038.88;5072237;28;20085;-78
2022/07/28 03:43:17;;;;;;;20.42;9.68;;;;;;;24.51;46.90;99055.22;5069267;28;20115;-76
2022/07/28 03:45:44;;;;;;;15.07;10.02;;;;;;;24.70;46.91;99054.84;5073021;28;20029;-76
2022/07/28 03:48:10;;;;;;;17.48;10.27;;;;;;;24.70;46.43;99057.69;5072143;28;20040;-76
2022/07/28 03:50:36;;;;;;;12.10;9.05;;;;;;;24.67;46.94;99050.81;5072462;28;20036;-76
2022/07/28 03:53:02;;;;;;;18.63;10.25;;;;;;;24.72;46.81;99060.91;5072920;28;20043;-76
2022/07/28 03:55:27;;;;;;;19.48;9.52;;;;;;;24.85;46.65;99061.88;5060855;28;20032;-77
2022/07/28 03:57:53;;;;;;;12.50;9.00;;;;;;;24.93;46.47;99060.47;5052065;28;20454;-77
2022/07/28 04:00:19;;;;;;;16.83;10.02;;;;;;;24.99;46.29;99074.22;5052105;28;20044;-77
2022/07/28 04:02:45;;;;;;;36.92;11.43;;;;;;;25.14;46.67;99058.31;5052303;28;20071;-77
2022/07/28 04:05:16;;;;;;;20.55;9.45;;;;;;;25.12;46.93;99068.63;5051119;28;20028;-76
2022/07/28 04:07:42;;;;;;;28.17;11.13;;;;;;;24.94;47.63;99066.97;5052279;28;20021;-76
2022/07/28 04:10:09;;;;;;;17.85;9.85;;;;;;;24.90;48.39;99069.91;5052225;28;20029;-76
2022/07/28 04:12:46;;;;;;;15.88;9.80;;;;;;;24.98;48.87;99072.63;5052390;28;20093;-76
2022/07/28 04:15:13;;;;;;;17.35;9.82;;;;;;;25.13;48.82;99090.25;5063083;28;20078;-76
2022/07/28 04:17:39;;;;;;;23.02;9.52;;;;;;;25.16;48.49;99089.34;5070510;28;20421;-76
2022/07/28 04:20:05;;;;;;;11.23;9.88;;;;;;;25.07;48.77;99090.78;5066359;28;20020;-76
2022/07/28 04:22:31;;;;;;;19.33;9.90;;;;;;;25.03;49.28;99090.06;5066844;28;20498;-76
2022/07/28 04:24:56;;;;;;;14.60;10.13;;;;;;;25.09;49.36;99085.41;5070616;28;20054;-76
2022/07/28 04:27:22;;;;;;;20.10;9.23;;;;;;;25.28;49.25;99099.28;5066521;28;20112;-76
2022/07/28 04:29:47;;;;;;;15.45;10.10;;;;;;;25.37;49.47;99097.44;5064890;28;20078;-76
2022/07/28 04:32:13;;;;;;;16.50;10.40;;;;;;;25.53;49.40;99095.06;5069241;28;21255;-76
2022/07/28 04:34:38;;;;;;;16.33;9.23;;;;;;;25.61;49.16;99105.88;5067478;28;20029;-76
2022/07/28 04:37:04;;;;;;;13.70;10.00;;;;;;;25.31;49.20;99101.28;5069821;28;20537;-74
2022/07/28 04:39:29;;;;;;;17.58;9.77;;;;;;;25.17;49.61;99102.41;5070683;28;20029;-74
2022/07/28 04:41:54;;;;;;;24.50;10.20;;;;;;;25.31;49.81;99115.59;5070778;28;20499;-74
2022/07/28 04:44:20;;;;;;;14.65;10.07;;;;;;;25.27;50.51;99103.41;5060813;28;20399;-74
2022/07/28 04:46:45;;;;;;;15.77;9.55;;;;;;;25.46;50.11;99110.31;5071893;28;20024;-74
2022/07/28 04:49:11;;;;;;;14.50;9.38;;;;;;;25.45;50.32;99109.50;5091160;28;20391;-75
2022/07/28 04:51:36;;;;;;;16.58;8.93;;;;;;;25.42;50.08;99107.56;5070799;28;20024;-74
2022/07/28 04:54:02;;;;;;;13.15;10.30;;;;;;;25.62;50.07;99113.22;5069658;28;20033;-74
2022/07/28 04:56:27;;;;;;;14.50;9.80;;;;;;;25.72;50.01;99116.25;5064737;28;20479;-74
2022/07/28 04:58:53;;;;;;;15.88;9.40;;;;;;;25.74;49.99;99122.34;5051054;28;20045;-74
2022/07/28 05:01:20;;;;;;;19.00;10.75;;;;;;;25.83;50.18;99125.38;5060704;28;20028;-74
2022/07/28 05:03:46;;;;;;;11.65;9.80;;;;;;;25.88;49.74;99126.88;5064420;28;20472;-74
2022/07/28 05:06:11;;;;;;;19.33;9.95;;;;;;;25.92;49.89;99125.53;5067729;28;20055;-74
2022/07/28 05:08:36;;;;;;;14.02;10.00;;;;;;;26.00;50.08;99131.09;5069818;28;20021;-74
2022/07/28 05:11:02;;;;;;;15.35;9.65;;;;;;;26.12;49.88;99124.63;5070115;28;20051;-74
2022/07/28 05:13:28;;;;;;;12.27;9.52;;;;;;;26.15;49.35;99120.84;5069847;28;20025;-74
2022/07/28 05:15:53;;;;;;;19.05;9.40;;;;;;;26.23;49.65;99120.69;5051519;28;20032;-74
2022/07/28 05:18:19;;;;;;;13.82;9.43;;;;;;;26.45;49.16;99126.63;5049908;28;20411;-74
2022/07/28 05:20:44;;;;;;;12.07;10.25;;;;;;;26.44;49.32;99122.97;5065916;28;20031;-74
2022/07/28 05:23:11;;;;;;;20.77;9.57;;;;;;;26.58;48.79;99129.53;5067109;28;20029;-74
2022/07/28 05:25:37;;;;;;;11.75;9.60;;;;;;;26.71;49.01;99121.78;5051386;28;20036;-74
2022/07/28 05:28:03;;;;;;;15.57;9.10;;;;;;;26.74;48.47;99123.72;5062372;28;20032;-74
2022/07/28 05:30:28;;;;;;;12.98;9.23;;;;;;;26.81;47.73;99128.44;5062582;28;20032;-74
2022/07/28 05:32:58;;;;;;;17.33;9.98;;;;;;;26.94;47.01;99128.50;5057776;28;20118;-74
2022/07/28 05:35:24;;;;;;;12.40;10.13;;;;;;;27.03;46.85;99128.63;5069437;28;20119;-74
2022/07/28 05:37:50;;;;;;;31.25;10.93;;;;;;;27.24;47.39;99131.28;5070603;28;20040;-74
2022/07/28 05:40:17;;;;;;;14.38;10.05;;;;;;;27.40;46.51;99128.28;5063791;28;20021;-74
2022/07/28 05:42:43;;;;;;;13.68;9.90;;;;;;;27.45;46.42;99129.78;5067491;28;20031;-74
2022/07/28 05:45:10;;;;;;;16.08;10.70;;;;;;;27.52;45.67;99123.81;5054997;28;20021;-74
2022/07/28 05:47:45;;;;;;;13.25;10.10;;;;;;;27.72;45.26;99132.22;5067432;28;20028;-74
2022/07/28 05:50:12;;;;;;;16.85;9.70;;;;;;;27.77;45.01;99133.69;5065170;28;20123;-74
2022/07/28 05:52:37;;;;;;;17.98;10.10;;;;;;;27.92;44.83;99128.25;5059033;28;20039;-73
2022/07/28 05:55:05;;;;;;;12.38;9.75;;;;;;;27.99;44.13;99128.00;5056613;28;20411;-77
2022/07/28 05:57:30;;;;;;;13.45;10.32;;;;;;;28.10;44.12;99124.75;5066702;28;20040;-74
2022/07/28 05:59:56;;;;;;;12.95;10.05;;;;;;;28.26;44.95;99123.00;5066936;28;20508;-75
2022/07/28 06:02:21;;;;;;;11.68;9.85;;;;;;;28.36;44.84;99129.63;5068495;28;20029;-80
2022/07/28 06:04:47;;;;;;;13.10;10.23;;;;;;;28.42;45.03;99127.78;5060798;28;20501;-79
2022/07/28 06:07:12;;;;;;;10.93;9.38;;;;;;;28.48;44.11;99122.22;5061161;28;20107;-77
2022/07/28 06:09:38;;;;;;;13.32;9.73;;;;;;;28.69;43.30;99127.16;5053548;28;20028;-80
2022/07/28 06:12:03;;;;;;;10.25;9.25;;;;;;;28.79;43.58;99119.41;5063250;28;20028;-80
2022/07/28 06:14:29;;;;;;;17.45;9.52;;;;;;;28.76;43.46;99122.44;5071425;28;20028;-84
2022/07/28 06:16:54;;;;;;;14.52;10.55;;;;;;;28.96;42.95;99116.34;5067430;28;20492;-78
2022/07/28 06:19:20;;;;;;;12.18;9.45;;;;;;;29.05;42.34;99119.25;5066786;28;20103;-76
2022/07/28 06:21:46;;;;;;;18.02;10.43;;;;;;;29.00;42.64;99123.56;5056164;28;20102;-75
2022/07/28 06:24:12;;;;;;;14.10;9.85;;;;;;;29.00;43.13;99116.97;5055652;28;20028;-77
2022/07/28 06:26:38;;;;;;;12.13;10.70;;;;;;;29.13;42.76;99114.03;5056401;28;20466;-79
2022/07/28 06:29:05;;;;;;;17.50;11.55;;;;;;;29.16;43.39;99106.53;5077928;28;20423;-76
2022/07/28 06:31:30;;;;;;;14.75;10.73;;;;;;;29.22;42.11;99111.19;5060548;28;20028;-76
2022/07/28 06:33:56;;;;;;;11.05;9.82;;;;;;;29.30;42.04;99111.69;5053092;28;20025;-78
2022/07/28 06:36:21;;;;;;;14.80;10.38;;;;;;;29.51;41.71;99112.91;5067418;28;20027;-75
2022/07/28 06:38:48;;;;;;;11.85;10.68;;;;;;;29.67;41.17;99105.28;5073606;28;20105;-78
2022/07/28 06:41:14;;;;;;;11.90;9.63;;;;;;;29.72;40.31;99101.78;5063173;28;20074;-76
2022/07/28 06:43:39;;;;;;;13.80;9.80;;;;;;;29.74;40.67;99098.41;5062439;28;20479;-82
2022/07/28 06:46:05;;;;;;;15.05;10.43;;;;;;;29.94;40.12;99100.84;5071210;28;20028;-83
2022/07/28 06:48:31;;;;;;;13.43;9.93;;;;;;;30.14;39.47;99096.72;5070968;28;20094;-83
2022/07/28 06:50:58;;;;;;;18.35;10.27;;;;;;;30.42;39.26;99094.63;5071947;28;20021;-81
2022/07/28 06:53:24;;;;;;;12.75;11.00;;;;;;;30.33;39.12;99088.88;5061267;28;20029;-81
2022/07/28 06:55:50;;;;;;;12.68;10.15;;;;;;;30.35;39.24;99095.75;5072717;28;20021;-81
2022/07/28 06:58:15;;;;;;;14.32;10.23;;;;;;;30.44;38.08;99094.94;5076137;28;20119;-78
2022/07/28 07:00:41;;;;;;;10.70;9.70;;;;;;;30.15;38.36;99087.59;5065352;28;20036;-78
2022/07/28 07:03:06;;;;;;;26.50;10.93;;;;;;;30.30;38.87;99096.41;5074333;28;20017;-79
2022/07/28 07:05:32;;;;;;;12.02;10.82;;;;;;;30.47;38.67;99098.97;5057422;28;20525;-77
2022/07/28 07:07:57;;;;;;;35.42;12.27;;;;;;;30.40;38.20;99092.22;5053156;28;20060;-76
2022/07/28 07:10:23;;;;;;;29.25;9.88;;;;;;;30.38;38.01;99097.69;5057266;28;20020;-75
2022/07/28 07:12:48;;;;;;;37.83;11.75;;;;;;;30.60;37.80;99088.03;5071148;28;20438;-78
2022/07/28 07:15:14;;;;;;;13.02;11.60;;;;;;;30.33;38.09;99098.34;5053135;28;20029;-78
2022/07/28 07:17:40;;;;;;;15.82;10.75;;;;;;;30.12;38.83;99094.34;5054431;28;20021;-78
2022/07/28 07:20:07;;;;;;;26.05;11.25;;;;;;;30.37;38.33;99087.44;5055669;28;20028;-78
2022/07/28 07:22:33;;;;;;;10.98;10.00;;;;;;;30.70;38.00;99085.19;5071555;28;20025;-78
2022/07/28 07:25:18;;;;;;;11.57;10.48;;;;;;;30.95;37.22;99081.09;5061595;28;20051;-79
2022/07/28 07:27:45;;;;;;;15.20;9.82;;;;;;;31.19;36.59;99089.00;5063379;28;20473;-78
2022/07/28 07:30:12;;;;;;;28.20;10.10;;;;;;;31.34;37.06;99086.25;5052650;28;20019;-78
2022/07/28 07:32:38;;;;;;;12.50;9.90;;;;;;;31.22;36.72;99091.75;5065195;28;20032;-79
2022/07/28 07:35:04;;;;;;;17.38;12.00;;;;;;;31.20;35.86;99081.97;5071141;28;20028;-81
2022/07/28 07:37:31;;;;;;;11.05;9.98;;;;;;;31.33;36.66;99085.47;5062621;28;20429;-77
2022/07/28 07:39:58;;;;;;;10.90;9.75;;;;;;;31.45;35.63;99069.19;5071306;28;20035;-79
2022/07/28 07:42:24;;;;;;;20.17;10.75;;;;;;;31.71;35.96;99083.16;5064408;28;20107;-80
2022/07/28 07:44:49;;;;;;;11.88;9.88;;;;;;;31.69;35.80;99082.84;5068335;28;20024;-78
2022/07/28 07:47:15;;;;;;;37.75;13.18;;;;;;;31.57;37.27;99078.94;5069907;28;20024;-80
2022/07/28 07:49:40;;;;;;;26.48;11.13;;;;;;;31.86;36.30;99082.47;5073915;28;20063;-80
2022/07/28 07:52:06;;;;;;;12.95;10.60;;;;;;;31.86;36.12;99082.47;5066913;28;20561;-80
2022/07/28 07:54:33;;;;;;;23.23;11.38;;;;;;;31.72;35.92;99081.06;5062924;28;20111;-79
2022/07/28 07:56:59;;;;;;;11.77;10.68;;;;;;;31.68;35.78;99080.44;5064309;28;20055;-80
2022/07/28 07:59:24;;;;;;;13.23;10.35;;;;;;;31.66;35.78;99084.63;5055298;28;20060;-79
2022/07/28 08:01:53;;;;;;;13.25;9.57;;;;;;;31.86;36.30;99094.03;5062661;28;20024;-81
2022/07/28 08:04:23;;;;;;;18.80;9.88;;;;;;;31.69;35.57;99082.06;5051940;28;20048;-79
2022/07/28 08:06:49;;;;;;;23.60;11.05;;;;;;;31.84;35.80;99085.84;5058912;28;20025;-80
2022/07/28 08:09:16;;;;;;;18.88;11.10;;;;;;;32.22;35.14;99084.25;5065285;28;20050;-81
2022/07/28 08:11:42;;;;;;;20.90;11.50;;;;;;;32.43;35.40;99080.72;5065656;28;20075;-81
2022/07/28 08:14:08;;;;;;;15.77;11.00;;;;;;;32.66;35.91;99093.53;5059111;28;20025;-80
2022/07/28 08:16:34;;;;;;;12.35;10.07;;;;;;;32.75;35.33;99078.16;5064529;28;20032;-78
2022/07/28 08:19:00;;;;;;;13.85;9.27;;;;;;;32.83;34.61;99087.25;5062711;28;20424;-79
2022/07/28 08:21:26;;;;;;;13.77;9.63;;;;;;;33.01;34.36;99089.16;5052724;28;20872;-83
2022/07/28 08:23:57;;;;;;;13.60;10.80;;;;;;;32.96;34.36;99092.78;5053634;28;20027;-81
2022/07/28 08:26:24;;;;;;;21.70;11.02;;;;;;;33.08;34.32;99088.75;5052112;28;20029;-80
2022/07/28 08:28:51;;;;;;;15.57;10.90;;;;;;;32.78;33.84;99097.41;5073920;28;20028;-79
2022/07/28 08:31:20;;;;;;;14.43;10.82;;;;;;;32.15;35.41;99095.41;5064286;28;20036;-82
2022/07/28 08:33:49;;;;;;;35.65;13.25;;;;;;;31.77;36.51;99086.16;5051850;28;20048;-80
2022/07/28 08:36:15;;;;;;;19.60;10.68;;;;;;;32.40;35.29;99087.50;5068439;28;20093;-83
2022/07/28 08:38:40;;;;;;;29.45;11.75;;;;;;;32.76;34.38;99091.34;5057644;28;20033;-85
2022/07/28 08:41:12;;;;;;;13.18;10.65;;;;;;;32.98;34.60;99090.94;5071475;28;20021;-76
2022/07/28 08:43:41;;;;;;;18.60;10.40;;;;;;;33.00;34.85;99094.13;5067719;28;20035;-83
2022/07/28 08:46:07;;;;;;;12.40;10.85;;;;;;;32.08;35.13;99102.38;5061717;28;20068;-76
2022/07/28 08:48:36;;;;;;;17.25;10.43;;;;;;;32.61;35.52;99103.72;5057026;28;20090;-83
2022/07/28 08:51:09;;;;;;;20.88;10.65;;;;;;;33.13;35.17;99093.84;5057710;28;20822;-81
2022/07/28 08:53:38;;;;;;;13.80;10.43;;;;;;;33.26;34.88;99090.63;5061286;28;20424;-80
2022/07/28 08:56:11;;;;;;;17.77;10.25;;;;;;;33.45;34.67;99096.19;5070230;28;20064;-80
2022/07/28 08:58:37;;;;;;;12.52;9.70;;;;;;;33.49;34.35;99098.88;5070176;28;20076;-79
2022/07/28 09:01:05;;;;;;;10.25;9.27;;;;;;;33.81;34.04;99090.38;5067123;28;20043;-83
2022/07/28 09:03:31;;;;;;;12.60;9.52;;;;;;;33.85;34.37;99108.34;5057820;28;20150;-79
2022/07/28 09:05:57;;;;;;;18.95;9.43;;;;;;;33.80;34.15;99098.28;5052006;28;20491;-79
2022/07/28 09:08:23;;;;;;;10.68;9.55;;;;;;;34.00;34.15;99093.81;5055896;28;20021;-81
2022/07/28 09:10:49;;;;;;;23.38;9.38;;;;;;;33.50;33.90;99089.69;5067102;28;20360;-80
2022/07/28 09:13:16;;;;;;;27.50;10.60;;;;;;;33.18;34.99;99074.94;5052346;28;20167;-78
2022/07/28 09:15:46;;;;;;;16.02;10.73;;;;;;;33.94;33.50;99092.91;5066749;28;20435;-80
2022/07/28 09:18:12;;;;;;;;;;;;;;;33.95;33.38;99092.41;5052608;28;20383;-82
2022/07/28 09:20:39;;;;;;;11.32;9.23;;;;;;;33.88;32.81;99089.94;5065548;28;19916;-79
2022/07/28 09:23:06;;;;;;;12.00;9.18;;;;;;;34.09;32.88;99093.69;5052073;28;20040;-77
2022/07/28 09:25:32;;;;;;;26.25;10.07;;;;;;;34.30;33.19;99090.75;5063422;28;20032;-78
2022/07/28 09:28:13;;;;;;;22.88;11.75;;;;;;;34.25;32.78;99089.38;5066335;28;20028;-80
2022/07/28 09:30:45;;;;;;;27.27;9.95;;;;;;;34.77;31.98;99087.03;5062158;28;20029;-76
2022/07/28 09:33:25;;;;;;;23.60;9.82;;;;;;;34.50;31.66;99098.59;5053178;28;20028;-76
2022/07/28 09:35:51;;;;;;;24.58;9.38;;;;;;;34.23;32.06;99094.09;5054208;28;20089;-76
2022/07/28 09:38:18;;;;;;;18.52;9.02;;;;;;;34.04;32.53;99093.63;5070901;28;20040;-79
2022/07/28 09:40:55;;;;;;;18.75;9.68;;;;;;;34.21;31.53;99094.59;5070805;28;20403;-75
2022/07/28 09:43:34;;;;;;;22.67;9.35;;;;;;;34.26;31.12;99079.34;5060632;28;20620;-83
2022/07/28 09:46:24;;;;;;;12.77;8.75;;;;;;;33.99;32.33;99087.22;5051465;28;20119;-83
2022/07/28 09:48:49;;;;;;;19.15;9.20;;;;;;;34.30;31.17;99088.66;5045472;28;20048;-79
2022/07/28 09:51:17;;;;;;;24.15;10.38;;;;;;;34.72;31.15;99079.84;5057525;28;20024;-79
2022/07/28 09:53:43;;;;;;;20.17;10.15;;;;;;;34.20;31.22;99074.78;5072079;28;20111;-83
2022/07/28 09:56:10;;;;;;;15.38;9.52;;;;;;;33.79;32.25;99072.69;5069896;28;20542;-79
2022/07/28 09:58:36;;;;;;;9.48;8.57;;;;;;;34.20;31.57;99074.78;5060733;28;20080;-82
2022/07/28 10:01:09;;;;;;;10.77;9.68;;;;;;;33.60;31.96;99075.88;5065793;28;20026;-78
2022/07/28 10:03:36;;;;;;;14.35;9.52;;;;;;;34.20;32.17;99069.00;5056883;28;20078;-78
2022/07/28 10:06:06;;;;;;;14.65;8.82;;;;;;;34.69;30.54;99067.19;5052923;28;20057;-79
2022/07/28 10:08:40;;;;;;;15.13;8.77;;;;;;;34.94;30.16;99064.75;5050533;28;20036;-81
2022/07/28 10:11:06;;;;;;;55.60;11.88;;;;;;;34.87;30.60;99056.50;5049984;28;20020;-82
2022/07/28 10:13:31;;;;;;;18.60;9.13;;;;;;;35.31;30.45;99059.50;5066731;28;20039;-74
2022/07/28 10:16:10;;;;;;;12.65;8.23;;;;;;;35.50;30.20;99059.91;5057911;28;20029;-80
2022/07/28 10:18:39;;;;;;;10.20;9.00;;;;;;;35.53;27.87;99059.63;5070564;28;20025;-76
2022/07/28 10:21:12;;;;;;;11.63;9.25;;;;;;;35.61;28.52;99054.19;5068353;28;20056;-75
2022/07/28 10:23:38;;;;;;;9.85;8.23;;;;;;;35.66;28.26;99052.59;5059129;28;20064;-79
2022/07/28 10:26:09;;;;;;;10.73;9.52;;;;;;;35.79;27.79;99040.50;5055765;28;20063;-80
2022/07/28 10:28:37;;;;;;;10.73;8.95;;;;;;;35.80;27.52;99037.09;5051762;28;20021;-75
2022/07/28 10:31:06;;;;;;;13.48;8.43;;;;;;;36.09;26.76;99046.72;5051511;28;20021;-78
2022/07/28 10:33:31;;;;;;;14.03;9.60;;;;;;;36.14;26.83;99042.25;5053651;28;20020;-83
2022/07/28 10:35:59;;;;;;;10.02;8.98;;;;;;;36.28;27.36;99057.09;5054793;28;20485;-79
2022/07/28 10:38:33;;;;;;;12.63;9.70;;;;;;;36.18;26.84;99045.69;5058132;28;20036;-77
2022/07/28 10:41:02;;;;;;;10.93;9.07;;;;;;;36.16;27.02;99042.50;5058977;28;20044;-77
2022/07/28 10:43:31;;;;;;;11.63;9.13;;;;;;;36.19;26.98;99044.38;5054747;28;20036;-77
2022/07/28 10:46:00;;;;;;;;;;;;;;;35.98;27.31;99044.56;5049009;28;20035;-76
2022/07/28 10:48:26;;;;;;;11.23;9.63;;;;;;;35.94;27.28;99044.00;5064186;28;19917;-78
2022/07/28 10:50:53;;;;;;;15.63;9.90;;;;;;;36.15;27.31;99043.84;5064689;28;20031;-76
2022/07/28 10:53:59;;;;;;;16.58;10.75;;;;;;;36.31;27.40;99044.41;5066831;28;20036;-79
2022/07/28 10:56:42;;;;;;;12.48;10.05;;;;;;;36.38;27.52;99043.91;5044734;28;20036;-77
2022/07/28 10:59:11;;;;;;;16.38;11.15;;;;;;;36.48;27.15;99035.69;5069709;28;20059;-76
2022/07/28 11:01:39;;;;;;;18.17;10.27;;;;;;;36.48;27.03;99039.41;5052779;28;20032;-79
2022/07/28 11:04:05;;;;;;;16.10;10.05;;;;;;;36.56;27.19;99030.97;5055646;28;20052;-77
2022/07/28 11:06:38;;;;;;;13.55;9.13;;;;;;;36.50;26.28;99033.84;5050688;28;20538;-78
2022/07/28 11:09:15;;;;;;;10.80;9.70;;;;;;;36.43;27.08;99037.28;5057128;28;20475;-72
2022/07/28 11:11:45;;;;;;;10.98;9.15;;;;;;;36.22;26.23;99028.78;5069781;28;20036;-76
2022/07/28 11:14:25;;;;;;;13.23;8.88;;;;;;;36.18;26.21;99036.19;5071837;28;20545;-78
2022/07/28 11:17:00;;;;;;;16.90;9.95;;;;;;;36.28;25.76;99028.81;5053315;28;20041;-75
2022/07/28 11:19:27;;;;;;;16.95;8.32;;;;;;;36.35;25.45;99016.63;5063757;28;20033;-78
2022/07/28 11:22:15;;;;;;;16.30;9.55;;;;;;;36.63;26.07;99007.19;5057189;28;20040;-78
2022/07/28 11:24:55;;;;;;;12.93;7.35;;;;;;;36.59;23.41;99011.66;5067135;28;20028;-77
2022/07/28 11:27:40;;;;;;;15.10;7.50;;;;;;;36.18;22.82;99007.09;5071319;28;20032;-77
2022/07/28 11:30:10;;;;;;;14.02;8.10;;;;;;;36.40;24.32;99003.41;5065381;28;20021;-78